createdAt,value
2024-01-31T00:01:41.803Z,7.94
2024-01-31T00:06:53.389Z,7.85
2024-01-31T00:11:59.012Z,7.70
2024-01-31T00:17:05.000Z,7.54
2024-01-31T00:22:10.679Z,7.48
2024-01-31T00:27:16.445Z,7.39
2024-01-31T00:32:22.099Z,7.40
2024-01-31T00:37:27.725Z,7.40
2024-01-31T00:42:33.613Z,7.41
2024-01-31T00:47:39.386Z,7.44
2024-01-31T00:52:45.377Z,7.65
2024-01-31T00:57:51.710Z,8.02
2024-01-31T01:02:57.321Z,8.31
2024-01-31T01:08:04.047Z,8.51
2024-01-31T01:13:10.325Z,8.64
2024-01-31T01:18:16.142Z,8.80
2024-01-31T01:23:22.053Z,8.87
2024-01-31T01:28:27.875Z,8.93
2024-01-31T01:33:33.683Z,9.00
2024-01-31T01:38:39.573Z,9.06
2024-01-31T01:43:45.364Z,9.11
2024-01-31T01:48:52.250Z,9.13
2024-01-31T01:53:58.314Z,9.19
2024-01-31T01:59:04.082Z,9.21
2024-01-31T02:04:11.261Z,9.21
2024-01-31T02:09:17.582Z,9.23
2024-01-31T02:14:23.229Z,9.25
2024-01-31T02:19:29.023Z,9.26
2024-01-31T02:24:34.661Z,9.28
2024-01-31T02:29:40.833Z,9.28
2024-01-31T02:34:46.470Z,9.30
2024-01-31T02:39:52.195Z,9.30
2024-01-31T02:44:57.861Z,9.32
2024-01-31T02:50:05.377Z,9.33
2024-01-31T02:55:23.265Z,9.31
2024-01-31T03:00:29.073Z,9.31
2024-01-31T03:05:34.955Z,9.28
2024-01-31T03:10:42.268Z,9.28
2024-01-31T03:15:48.146Z,9.29
2024-01-31T03:20:55.595Z,9.25
2024-01-31T03:26:01.415Z,9.26
2024-01-31T03:31:07.210Z,9.25
2024-01-31T03:36:13.783Z,9.21
2024-01-31T03:41:19.538Z,9.20
2024-01-31T03:46:26.380Z,9.06
2024-01-31T03:51:32.035Z,9.01
2024-01-31T03:56:37.680Z,8.90
2024-01-31T04:01:43.471Z,8.75
2024-01-31T04:06:49.628Z,8.66
2024-01-31T04:11:55.284Z,8.55
2024-01-31T04:17:01.049Z,8.51
2024-01-31T04:22:07.036Z,8.46
2024-01-31T04:27:12.726Z,8.47
2024-01-31T04:32:18.570Z,8.52
2024-01-31T04:37:24.205Z,8.47
2024-01-31T04:42:29.891Z,8.46
2024-01-31T04:47:35.591Z,8.48
2024-01-31T04:52:41.427Z,8.46
2024-01-31T04:57:47.212Z,8.45
2024-01-31T05:02:53.199Z,8.45
2024-01-31T05:07:58.780Z,8.46
2024-01-31T05:13:04.394Z,8.47
2024-01-31T05:18:10.151Z,8.63
2024-01-31T05:23:15.963Z,8.54
2024-01-31T05:28:21.816Z,8.48
2024-01-31T05:33:27.615Z,8.47
2024-01-31T05:38:33.559Z,8.33
2024-01-31T05:43:39.392Z,8.25
2024-01-31T05:48:48.261Z,8.19
2024-01-31T05:53:53.965Z,8.13
2024-01-31T05:58:59.602Z,8.14
2024-01-31T06:04:07.034Z,8.11
2024-01-31T06:09:13.773Z,8.11
2024-01-31T06:14:19.468Z,8.12
2024-01-31T06:19:25.229Z,8.12
2024-01-31T06:24:30.930Z,8.11
2024-01-31T06:29:36.583Z,8.09
2024-01-31T06:34:42.217Z,8.05
2024-01-31T06:39:47.906Z,7.96
2024-01-31T06:44:53.707Z,7.87
2024-01-31T06:49:59.810Z,7.83
2024-01-31T06:55:06.096Z,7.79
2024-01-31T07:00:12.834Z,7.77
2024-01-31T07:05:18.720Z,7.74
2024-01-31T07:10:24.441Z,7.70
2024-01-31T07:15:30.143Z,7.63
2024-01-31T07:20:36.032Z,7.57
2024-01-31T07:25:42.286Z,7.53
2024-01-31T07:30:47.880Z,7.53
2024-01-31T07:35:53.525Z,7.52
2024-01-31T07:40:59.239Z,7.53
2024-01-31T07:46:08.609Z,7.52
2024-01-31T07:51:14.548Z,7.57
2024-01-31T07:56:20.311Z,7.58
2024-01-31T08:01:26.069Z,7.56
2024-01-31T08:06:31.894Z,7.51
2024-01-31T08:11:46.626Z,7.54
2024-01-31T08:16:52.855Z,7.58
2024-01-31T08:21:58.687Z,7.59
2024-01-31T08:27:04.482Z,7.63
2024-01-31T08:32:10.254Z,7.63
2024-01-31T08:37:16.052Z,7.64
2024-01-31T08:42:21.754Z,7.70
2024-01-31T08:47:27.544Z,7.66
2024-01-31T08:52:33.352Z,7.69
2024-01-31T08:57:40.299Z,7.59
2024-01-31T09:02:46.361Z,7.61
2024-01-31T09:07:52.106Z,7.65
2024-01-31T09:12:57.908Z,7.40
2024-01-31T09:18:04.954Z,7.29
2024-01-31T09:23:10.872Z,7.61
2024-01-31T09:28:16.445Z,7.92
2024-01-31T09:33:22.163Z,8.16
2024-01-31T09:38:28.289Z,8.25
2024-01-31T09:43:34.177Z,8.34
2024-01-31T09:48:42.417Z,8.25
2024-01-31T09:53:51.050Z,8.15
2024-01-31T09:58:57.713Z,8.17
2024-01-31T10:04:04.650Z,8.24
2024-01-31T10:09:11.225Z,8.21
2024-01-31T10:14:17.074Z,8.19
2024-01-31T10:19:22.774Z,8.29
2024-01-31T10:24:29.449Z,8.59
2024-01-31T10:29:36.985Z,8.92
2024-01-31T10:34:53.480Z,8.98
2024-01-31T10:39:53.260Z,9.16
2024-01-31T10:45:00.665Z,9.21
2024-01-31T10:50:07.779Z,9.49
2024-01-31T10:55:15.335Z,9.63
2024-01-31T11:00:27.902Z,9.65
2024-01-31T11:05:34.907Z,9.80
2024-01-31T11:10:42.375Z,9.79
2024-01-31T11:15:48.133Z,9.59
2024-01-31T11:20:54.049Z,9.43
2024-01-31T11:26:01.191Z,9.17
2024-01-31T11:31:07.046Z,9.11
2024-01-31T11:36:13.015Z,9.11
2024-01-31T11:41:18.920Z,9.10
2024-01-31T11:46:24.802Z,8.97
2024-01-31T11:51:31.094Z,9.14
2024-01-31T11:56:37.431Z,9.04
2024-01-31T12:01:44.736Z,9.07
2024-01-31T12:06:50.561Z,9.15
2024-01-31T12:11:57.010Z,9.37
2024-01-31T12:17:02.724Z,9.19
2024-01-31T12:22:09.849Z,9.22
2024-01-31T12:27:17.726Z,9.03
2024-01-31T12:32:23.327Z,8.74
2024-01-31T12:37:29.176Z,8.41
2024-01-31T12:42:34.818Z,8.30
2024-01-31T12:47:42.191Z,8.32
2024-01-31T12:52:48.811Z,8.51
2024-01-31T12:57:54.594Z,8.56
2024-01-31T13:03:00.385Z,8.61
2024-01-31T13:08:07.118Z,8.46
2024-01-31T13:13:13.216Z,8.53
2024-01-31T13:18:19.121Z,8.39
2024-01-31T13:23:25.207Z,8.39
2024-01-31T13:28:30.959Z,8.32
2024-01-31T13:33:37.955Z,8.27
2024-01-31T13:38:43.831Z,8.17
2024-01-31T13:43:49.582Z,8.05
2024-01-31T13:48:55.311Z,8.22
2024-01-31T13:54:01.191Z,8.17
2024-01-31T13:59:06.915Z,8.30
2024-01-31T14:04:12.672Z,8.32
2024-01-31T14:09:19.157Z,8.25
2024-01-31T14:14:24.960Z,8.22
2024-01-31T14:19:31.692Z,8.22
2024-01-31T14:24:37.420Z,8.06
2024-01-31T14:29:43.177Z,7.96
2024-01-31T14:34:51.981Z,7.68
2024-01-31T14:39:57.649Z,7.51
2024-01-31T14:45:03.826Z,7.38
2024-01-31T14:50:11.646Z,7.18
2024-01-31T14:55:17.417Z,7.12
2024-01-31T15:00:24.533Z,6.82
2024-01-31T15:05:30.380Z,6.46
2024-01-31T15:10:37.387Z,6.24
2024-01-31T15:15:43.168Z,5.98
2024-01-31T15:20:49.884Z,5.79
2024-01-31T15:25:55.677Z,5.60
2024-01-31T15:31:01.576Z,5.41
2024-01-31T15:36:08.613Z,5.20
2024-01-31T15:41:14.411Z,5.06
2024-01-31T15:46:20.040Z,5.06
2024-01-31T15:51:26.273Z,5.04
2024-01-31T15:56:32.359Z,4.90
2024-01-31T16:01:38.207Z,4.63
2024-01-31T16:06:59.855Z,4.48
2024-01-31T16:12:06.413Z,4.53
2024-01-31T16:17:15.449Z,4.62
2024-01-31T16:22:21.494Z,4.68
2024-01-31T16:27:27.520Z,4.60
2024-01-31T16:32:33.438Z,4.64
2024-01-31T16:37:39.242Z,4.79
2024-01-31T16:42:45.123Z,4.86
2024-01-31T16:47:50.882Z,4.84
2024-01-31T16:52:56.558Z,4.93
2024-01-31T16:58:02.260Z,5.01
2024-01-31T17:03:07.968Z,5.07
2024-01-31T17:08:14.441Z,5.11
2024-01-31T17:13:21.376Z,5.13
2024-01-31T17:18:27.403Z,5.12
2024-01-31T17:23:34.996Z,5.13
2024-01-31T17:28:40.851Z,5.17
2024-01-31T17:33:46.887Z,5.33
2024-01-31T17:38:52.790Z,5.33
2024-01-31T17:43:58.645Z,5.39
2024-01-31T17:49:04.328Z,5.49
2024-01-31T17:54:10.271Z,5.49
2024-01-31T17:59:16.110Z,5.52
2024-01-31T18:04:23.339Z,5.56
2024-01-31T18:09:29.126Z,5.57
2024-01-31T18:14:36.695Z,5.58
2024-01-31T18:19:48.242Z,5.58
2024-01-31T18:24:54.220Z,5.51
2024-01-31T18:29:59.859Z,5.32
2024-01-31T18:35:05.978Z,5.26
2024-01-31T18:40:11.904Z,5.25
2024-01-31T18:45:17.733Z,5.19
2024-01-31T18:50:23.469Z,5.10
2024-01-31T18:55:29.035Z,5.10
2024-01-31T19:00:36.615Z,5.10
2024-01-31T19:05:42.210Z,5.09
2024-01-31T19:10:48.117Z,5.16
2024-01-31T19:15:53.654Z,5.20
2024-01-31T19:20:59.254Z,5.20
2024-01-31T19:26:05.110Z,5.15
2024-01-31T19:31:11.164Z,5.14
2024-01-31T19:36:24.460Z,5.04
2024-01-31T19:41:30.545Z,4.83
2024-01-31T19:46:38.616Z,4.71
2024-01-31T19:51:44.214Z,4.71
2024-01-31T19:56:50.218Z,4.53
2024-01-31T20:01:55.880Z,4.49
2024-01-31T20:07:02.058Z,4.47
2024-01-31T20:12:08.590Z,4.47
2024-01-31T20:17:16.025Z,4.40
2024-01-31T20:22:21.868Z,4.36
2024-01-31T20:27:28.554Z,4.39
2024-01-31T20:32:34.355Z,4.57
2024-01-31T20:37:40.094Z,4.66
2024-01-31T20:42:46.324Z,4.79
2024-01-31T20:47:52.306Z,4.87
2024-01-31T20:52:58.248Z,5.01
2024-01-31T20:58:04.034Z,5.08
2024-01-31T21:03:09.962Z,5.09
2024-01-31T21:08:15.738Z,5.09
2024-01-31T21:13:21.403Z,5.03
2024-01-31T21:18:27.174Z,4.99
2024-01-31T21:23:33.404Z,5.25
2024-01-31T21:28:39.043Z,5.25
2024-01-31T21:33:44.685Z,5.48
2024-01-31T21:38:50.607Z,5.48
2024-01-31T21:44:02.809Z,5.54
2024-01-31T21:49:11.994Z,5.63
2024-01-31T21:54:17.850Z,5.68
2024-01-31T21:59:23.889Z,5.68
2024-01-31T22:04:32.937Z,5.72
2024-01-31T22:09:36.859Z,5.75
2024-01-31T22:14:42.612Z,5.77
2024-01-31T22:19:48.455Z,5.81
2024-01-31T22:24:54.576Z,5.81
2024-01-31T22:30:00.368Z,5.85
2024-01-31T22:35:07.636Z,5.87
2024-01-31T22:40:14.215Z,5.88
2024-01-31T22:45:20.351Z,5.90
2024-01-31T22:50:26.153Z,5.91
2024-01-31T22:55:31.924Z,5.95
2024-01-31T23:00:37.735Z,5.97
2024-01-31T23:05:43.919Z,6.01
2024-01-31T23:10:50.051Z,6.05
2024-01-31T23:15:55.718Z,6.09
2024-01-31T23:21:02.283Z,6.12
2024-01-31T23:26:08.183Z,6.13
2024-01-31T23:31:13.951Z,6.17
2024-01-31T23:36:19.653Z,6.23
2024-01-31T23:41:26.784Z,6.25
2024-01-31T23:46:32.608Z,6.29
2024-01-31T23:51:38.486Z,6.35
2024-01-31T23:56:44.136Z,6.38
